sensor_id;sensor_type;location;lat;lon;timestamp;pressure;altitude;pressure_sealevel;temperature;humidity
61474;BME280;53694;49.784;30.150;2023-03-13T00:00:53;99717.08;;;-0.28;65.91
61474;BME280;53694;49.784;30.150;2023-03-13T00:01:55;99709.90;;;-0.38;66.35
61474;BME280;53694;49.784;30.150;2023-03-13T00:02:57;99716.19;;;-0.47;66.74
61474;BME280;53694;49.784;30.150;2023-03-13T00:03:58;99721.14;;;-0.55;67.10
61474;BME280;53694;49.784;30.150;2023-03-13T00:05:00;99727.66;;;-0.61;67.42
61474;BME280;53694;49.784;30.150;2023-03-13T00:06:02;99722.61;;;-0.67;67.69
61474;BME280;53694;49.784;30.150;2023-03-13T00:07:04;99720.77;;;-0.72;67.99
61474;BME280;53694;49.784;30.150;2023-03-13T00:08:06;99723.49;;;-0.77;68.36
61474;BME280;53694;49.784;30.150;2023-03-13T00:09:09;99727.84;;;-0.81;68.33
61474;BME280;53694;49.784;30.150;2023-03-13T00:10:11;99732.19;;;-0.85;68.26
61474;BME280;53694;49.784;30.150;2023-03-13T00:11:14;99731.98;;;-0.89;68.18
61474;BME280;53694;49.784;30.150;2023-03-13T00:12:16;99738.73;;;-0.91;68.41
61474;BME280;53694;49.784;30.150;2023-03-13T00:13:17;99733.89;;;-0.94;68.22
61474;BME280;53694;49.784;30.150;2023-03-13T00:14:19;99732.29;;;-0.95;68.49
61474;BME280;53694;49.784;30.150;2023-03-13T00:15:20;99738.23;;;-0.98;68.58
61474;BME280;53694;49.784;30.150;2023-03-13T00:16:22;99733.94;;;-0.99;68.62
61474;BME280;53694;49.784;30.150;2023-03-13T00:17:24;99739.09;;;-1.03;68.61
61474;BME280;53694;49.784;30.150;2023-03-13T00:18:25;99740.98;;;-1.04;68.50
61474;BME280;53694;49.784;30.150;2023-03-13T00:19:27;99737.77;;;-1.06;68.42
61474;BME280;53694;49.784;30.150;2023-03-13T00:20:28;99736.14;;;-1.07;68.33
61474;BME280;53694;49.784;30.150;2023-03-13T00:21:30;99729.16;;;-1.08;68.49
61474;BME280;53694;49.784;30.150;2023-03-13T00:22:32;99732.94;;;-1.09;68.32
61474;BME280;53694;49.784;30.150;2023-03-13T00:23:35;99736.73;;;-1.10;68.42
61474;BME280;53694;49.784;30.150;2023-03-13T00:24:37;99737.79;;;-1.11;68.55
61474;BME280;53694;49.784;30.150;2023-03-13T00:25:39;99735.39;;;-1.12;68.61
61474;BME280;53694;49.784;30.150;2023-03-13T00:26:41;99737.28;;;-1.13;68.91
61474;BME280;53694;49.784;30.150;2023-03-13T00:27:42;99739.44;;;-1.15;69.13
61474;BME280;53694;49.784;30.150;2023-03-13T00:28:45;99736.23;;;-1.17;69.24
61474;BME280;53694;49.784;30.150;2023-03-13T00:29:47;99744.61;;;-1.18;69.17
61474;BME280;53694;49.784;30.150;2023-03-13T00:30:48;99735.98;;;-1.20;69.06
61474;BME280;53694;49.784;30.150;2023-03-13T00:31:50;99733.58;;;-1.22;69.26
61474;BME280;53694;49.784;30.150;2023-03-13T00:32:51;99736.27;;;-1.22;69.28
61474;BME280;53694;49.784;30.150;2023-03-13T00:33:59;99725.25;;;-1.26;69.28
61474;BME280;53694;49.784;30.150;2023-03-13T00:35:01;99721.75;;;-1.26;69.43
61474;BME280;53694;49.784;30.150;2023-03-13T00:36:05;99725.54;;;-1.27;69.59
61474;BME280;53694;49.784;30.150;2023-03-13T00:37:06;99729.30;;;-1.28;69.73
61474;BME280;53694;49.784;30.150;2023-03-13T00:38:08;99726.09;;;-1.30;69.89
61474;BME280;53694;49.784;30.150;2023-03-13T00:39:09;99732.58;;;-1.31;70.05
61474;BME280;53694;49.784;30.150;2023-03-13T00:40:11;99732.83;;;-1.33;70.22
61474;BME280;53694;49.784;30.150;2023-03-13T00:41:18;99738.52;;;-1.34;70.47
61474;BME280;53694;49.784;30.150;2023-03-13T00:42:21;99739.02;;;-1.27;70.60
61474;BME280;53694;49.784;30.150;2023-03-13T00:43:23;99746.38;;;-1.04;70.42
61474;BME280;53694;49.784;30.150;2023-03-13T00:44:24;99750.95;;;-0.70;69.92
61474;BME280;53694;49.784;30.150;2023-03-13T00:45:26;99746.23;;;-0.30;69.11
61474;BME280;53694;49.784;30.150;2023-03-13T00:46:28;99741.97;;;0.12;68.26
61474;BME280;53694;49.784;30.150;2023-03-13T00:47:30;99743.42;;;0.47;67.22
61474;BME280;53694;49.784;30.150;2023-03-13T00:48:32;99740.41;;;0.67;66.73
61474;BME280;53694;49.784;30.150;2023-03-13T00:49:33;99738.45;;;0.73;66.41
61474;BME280;53694;49.784;30.150;2023-03-13T00:50:35;99740.13;;;0.69;66.33
61474;BME280;53694;49.784;30.150;2023-03-13T00:51:36;99742.96;;;0.59;66.31
61474;BME280;53694;49.784;30.150;2023-03-13T00:52:38;99737.48;;;0.45;66.54
61474;BME280;53694;49.784;30.150;2023-03-13T00:53:39;99736.08;;;0.29;66.90
61474;BME280;53694;49.784;30.150;2023-03-13T00:54:41;99737.66;;;0.11;67.27
61474;BME280;53694;49.784;30.150;2023-03-13T00:55:55;99735.44;;;-0.06;67.68
61474;BME280;53694;49.784;30.150;2023-03-13T00:56:57;99736.70;;;-0.22;68.15
61474;BME280;53694;49.784;30.150;2023-03-13T00:57:58;99733.66;;;-0.40;68.65
61474;BME280;53694;49.784;30.150;2023-03-13T00:59:00;99736.23;;;-0.54;69.15
61474;BME280;53694;49.784;30.150;2023-03-13T01:00:03;99736.61;;;-0.65;69.70
61474;BME280;53694;49.784;30.150;2023-03-13T01:01:21;99734.28;;;-0.77;70.19
61474;BME280;53694;49.784;30.150;2023-03-13T01:02:22;99730.44;;;-1.00;71.01
61474;BME280;53694;49.784;30.150;2023-03-13T01:03:24;99730.44;;;-1.00;71.01
61474;BME280;53694;49.784;30.150;2023-03-13T01:04:25;99730.16;;;-0.98;71.22
61474;BME280;53694;49.784;30.150;2023-03-13T01:05:27;99731.92;;;-0.84;71.17
61474;BME280;53694;49.784;30.150;2023-03-13T01:06:31;99730.30;;;-0.56;70.68
61474;BME280;53694;49.784;30.150;2023-03-13T01:07:33;99729.94;;;-0.20;69.82
61474;BME280;53694;49.784;30.150;2023-03-13T01:08:35;99722.95;;;0.22;68.64
61474;BME280;53694;49.784;30.150;2023-03-13T01:09:36;99735.08;;;0.62;67.25
61474;BME280;53694;49.784;30.150;2023-03-13T01:10:38;99733.81;;;0.92;66.09
61474;BME280;53694;49.784;30.150;2023-03-13T01:11:41;99730.34;;;1.06;64.94
61474;BME280;53694;49.784;30.150;2023-03-13T01:12:43;99733.36;;;1.04;64.49
61474;BME280;53694;49.784;30.150;2023-03-13T01:13:45;99729.72;;;0.95;64.37
61474;BME280;53694;49.784;30.150;2023-03-13T01:14:49;99727.25;;;0.80;64.46
61474;BME280;53694;49.784;30.150;2023-03-13T01:15:50;99740.48;;;0.62;64.83
61474;BME280;53694;49.784;30.150;2023-03-13T01:16:52;99738.06;;;0.42;65.27
61474;BME280;53694;49.784;30.150;2023-03-13T01:17:53;99740.76;;;0.23;65.68
61474;BME280;53694;49.784;30.150;2023-03-13T01:18:58;99735.61;;;0.03;66.22
61474;BME280;53694;49.784;30.150;2023-03-13T01:19:59;99739.88;;;-0.15;66.70
61474;BME280;53694;49.784;30.150;2023-03-13T01:21:01;99741.42;;;-0.33;67.19
61474;BME280;53694;49.784;30.150;2023-03-13T01:22:03;99743.17;;;-0.47;67.71
61474;BME280;53694;49.784;30.150;2023-03-13T01:23:04;99745.23;;;-0.63;68.13
61474;BME280;53694;49.784;30.150;2023-03-13T01:24:06;99741.01;;;-0.74;68.58
61474;BME280;53694;49.784;30.150;2023-03-13T01:25:08;99738.67;;;-0.86;69.00
61474;BME280;53694;49.784;30.150;2023-03-13T01:26:11;99742.27;;;-0.96;69.44
61474;BME280;53694;49.784;30.150;2023-03-13T01:27:12;99740.98;;;-1.04;69.75
61474;BME280;53694;49.784;30.150;2023-03-13T01:28:14;99742.37;;;-1.11;70.15
61474;BME280;53694;49.784;30.150;2023-03-13T01:29:15;99736.52;;;-1.18;70.43
61474;BME280;53694;49.784;30.150;2023-03-13T01:30:17;99732.23;;;-1.24;70.62
61474;BME280;53694;49.784;30.150;2023-03-13T01:31:27;99728.19;;;-1.22;70.71
61474;BME280;53694;49.784;30.150;2023-03-13T01:32:35;99742.86;;;-0.70;69.67
61474;BME280;53694;49.784;30.150;2023-03-13T01:33:34;99742.86;;;-0.70;69.67
61474;BME280;53694;49.784;30.150;2023-03-13T01:34:35;99732.73;;;-0.30;68.67
61474;BME280;53694;49.784;30.150;2023-03-13T01:35:37;99723.20;;;0.02;67.48
61474;BME280;53694;49.784;30.150;2023-03-13T01:36:39;99724.55;;;0.23;66.60
61474;BME280;53694;49.784;30.150;2023-03-13T01:37:40;99726.08;;;0.29;66.08
61474;BME280;53694;49.784;30.150;2023-03-13T01:38:42;99726.37;;;0.28;65.44
61474;BME280;53694;49.784;30.150;2023-03-13T01:39:44;99728.13;;;0.18;64.70
61474;BME280;53694;49.784;30.150;2023-03-13T01:40:47;99723.44;;;0.05;64.55
61474;BME280;53694;49.784;30.150;2023-03-13T01:41:49;99730.34;;;-0.08;64.76
61474;BME280;53694;49.784;30.150;2023-03-13T01:42:56;99728.91;;;-0.24;64.79
61474;BME280;53694;49.784;30.150;2023-03-13T01:43:58;99728.14;;;-0.54;65.24
61474;BME280;53694;49.784;30.150;2023-03-13T01:44:59;99728.14;;;-0.54;65.24
61474;BME280;53694;49.784;30.150;2023-03-13T01:46:13;99739.59;;;-0.67;64.96
61474;BME280;53694;49.784;30.150;2023-03-13T01:47:15;99747.25;;;-0.79;65.24
61474;BME280;53694;49.784;30.150;2023-03-13T01:48:17;99746.81;;;-0.91;65.71
61474;BME280;53694;49.784;30.150;2023-03-13T01:49:27;99745.81;;;-1.01;65.98
61474;BME280;53694;49.784;30.150;2023-03-13T01:50:30;99754.50;;;-1.09;66.11
61474;BME280;53694;49.784;30.150;2023-03-13T01:51:43;99754.30;;;-1.17;66.49
61474;BME280;53694;49.784;30.150;2023-03-13T01:52:46;99750.89;;;-1.33;66.82
61474;BME280;53694;49.784;30.150;2023-03-13T01:54:36;99758.21;;;-1.39;67.22
61474;BME280;53694;49.784;30.150;2023-03-13T01:56:04;99763.89;;;-1.45;67.64
61474;BME280;53694;49.784;30.150;2023-03-13T01:57:24;99768.23;;;-1.49;67.99
61474;BME280;53694;49.784;30.150;2023-03-13T01:58:27;99773.65;;;-1.55;68.46
61474;BME280;53694;49.784;30.150;2023-03-13T01:59:43;99761.82;;;-1.59;68.96
61474;BME280;53694;49.784;30.150;2023-03-13T02:00:45;99766.69;;;-1.66;69.53
61474;BME280;53694;49.784;30.150;2023-03-13T02:01:48;99766.69;;;-1.66;69.53
61474;BME280;53694;49.784;30.150;2023-03-13T02:02:54;99764.58;;;-1.69;69.76
61474;BME280;53694;49.784;30.150;2023-03-13T02:03:56;99768.61;;;-1.71;70.31
61474;BME280;53694;49.784;30.150;2023-03-13T02:05:00;99771.84;;;-1.74;70.46
61474;BME280;53694;49.784;30.150;2023-03-13T02:06:05;99769.45;;;-1.76;70.68
61474;BME280;53694;49.784;30.150;2023-03-13T02:07:19;99771.05;;;-1.70;70.82
61474;BME280;53694;49.784;30.150;2023-03-13T02:08:41;99776.31;;;-1.49;70.75
61474;BME280;53694;49.784;30.150;2023-03-13T02:09:41;99778.47;;;-1.07;70.17
61474;BME280;53694;49.784;30.150;2023-03-13T02:10:50;99784.25;;;-0.56;69.44
61474;BME280;53694;49.784;30.150;2023-03-13T02:12:10;99789.73;;;-0.08;68.41
61474;BME280;53694;49.784;30.150;2023-03-13T02:13:14;99792.40;;;0.40;66.70
61474;BME280;53694;49.784;30.150;2023-03-13T02:14:18;99789.95;;;0.82;65.37
61474;BME280;53694;49.784;30.150;2023-03-13T02:15:22;99793.83;;;0.94;64.27
61474;BME280;53694;49.784;30.150;2023-03-13T02:16:25;99796.00;;;0.92;63.87
61474;BME280;53694;49.784;30.150;2023-03-13T02:17:28;99795.86;;;0.84;63.99
61474;BME280;53694;49.784;30.150;2023-03-13T02:18:30;99800.40;;;0.69;63.83
61474;BME280;53694;49.784;30.150;2023-03-13T02:20:38;99808.15;;;0.33;64.00
61474;BME280;53694;49.784;30.150;2023-03-13T02:21:58;99809.22;;;0.13;64.52
61474;BME280;53694;49.784;30.150;2023-03-13T02:23:21;99810.73;;;-0.05;64.84
61474;BME280;53694;49.784;30.150;2023-03-13T02:24:31;99812.03;;;-0.26;65.44
61474;BME280;53694;49.784;30.150;2023-03-13T02:25:46;99808.72;;;-0.47;66.08
61474;BME280;53694;49.784;30.150;2023-03-13T02:26:48;99803.74;;;-0.64;66.63
61474;BME280;53694;49.784;30.150;2023-03-13T02:27:53;99801.19;;;-0.79;67.09
61474;BME280;53694;49.784;30.150;2023-03-13T02:28:55;99812.03;;;-0.89;67.54
61474;BME280;53694;49.784;30.150;2023-03-13T02:29:57;99815.91;;;-1.01;67.96
61474;BME280;53694;49.784;30.150;2023-03-13T02:31:00;99816.50;;;-1.09;68.34
61474;BME280;53694;49.784;30.150;2023-03-13T02:32:02;99819.78;;;-1.17;68.80
61474;BME280;53694;49.784;30.150;2023-03-13T02:33:04;99821.16;;;-1.24;69.01
61474;BME280;53694;49.784;30.150;2023-03-13T02:34:05;99825.78;;;-1.30;69.30
61474;BME280;53694;49.784;30.150;2023-03-13T02:35:10;99822.33;;;-1.36;69.53
61474;BME280;53694;49.784;30.150;2023-03-13T02:36:13;99833.91;;;-1.40;69.75
61474;BME280;53694;49.784;30.150;2023-03-13T02:37:17;99825.05;;;-1.46;70.04
61474;BME280;53694;49.784;30.150;2023-03-13T02:38:23;99826.97;;;-1.52;70.18
61474;BME280;53694;49.784;30.150;2023-03-13T02:39:26;99832.10;;;-1.55;70.43
61474;BME280;53694;49.784;30.150;2023-03-13T02:40:36;99836.94;;;-1.52;70.80
61474;BME280;53694;49.784;30.150;2023-03-13T02:41:39;99843.05;;;-1.31;70.67
61474;BME280;53694;49.784;30.150;2023-03-13T02:42:44;99846.61;;;-0.96;70.09
61474;BME280;53694;49.784;30.150;2023-03-13T02:43:46;99840.64;;;-0.54;69.39
61474;BME280;53694;49.784;30.150;2023-03-13T02:44:48;99849.39;;;-0.09;68.50
61474;BME280;53694;49.784;30.150;2023-03-13T02:47:20;99854.73;;;0.68;66.13
61474;BME280;53694;49.784;30.150;2023-03-13T02:48:32;99852.86;;;0.87;64.44
61474;BME280;53694;49.784;30.150;2023-03-13T02:49:31;99852.86;;;0.87;64.44
61474;BME280;53694;49.784;30.150;2023-03-13T02:50:34;99855.19;;;0.75;64.29
61474;BME280;53694;49.784;30.150;2023-03-13T02:51:40;99858.11;;;0.60;64.32
61474;BME280;53694;49.784;30.150;2023-03-13T02:52:44;99858.84;;;0.41;64.69
61474;BME280;53694;49.784;30.150;2023-03-13T02:53:49;99856.10;;;0.22;65.08
61474;BME280;53694;49.784;30.150;2023-03-13T02:55:01;99859.52;;;0.04;65.52
61474;BME280;53694;49.784;30.150;2023-03-13T02:55:59;99864.84;;;-0.15;65.92
61474;BME280;53694;49.784;30.150;2023-03-13T02:57:03;99855.03;;;-0.35;66.45
61474;BME280;53694;49.784;30.150;2023-03-13T02:58:05;99857.88;;;-0.50;66.95
61474;BME280;53694;49.784;30.150;2023-03-13T02:59:06;99863.08;;;-0.64;67.45
61474;BME280;53694;49.784;30.150;2023-03-13T03:00:09;99868.05;;;-0.76;67.83
61474;BME280;53694;49.784;30.150;2023-03-13T03:01:11;99863.00;;;-0.88;68.25
61474;BME280;53694;49.784;30.150;2023-03-13T03:02:13;99867.64;;;-0.98;68.65
61474;BME280;53694;49.784;30.150;2023-03-13T03:03:14;99866.61;;;-1.08;69.03
61474;BME280;53694;49.784;30.150;2023-03-13T03:04:15;99862.90;;;-1.17;69.31
61474;BME280;53694;49.784;30.150;2023-03-13T03:05:17;99866.97;;;-1.24;69.57
61474;BME280;53694;49.784;30.150;2023-03-13T03:06:19;99869.19;;;-1.32;69.84
61474;BME280;53694;49.784;30.150;2023-03-13T03:07:20;99871.36;;;-1.39;70.12
61474;BME280;53694;49.784;30.150;2023-03-13T03:08:22;99868.95;;;-1.45;70.33
61474;BME280;53694;49.784;30.150;2023-03-13T03:09:23;99867.89;;;-1.49;70.52
61474;BME280;53694;49.784;30.150;2023-03-13T03:10:25;99864.66;;;-1.46;70.69
61474;BME280;53694;49.784;30.150;2023-03-13T03:11:27;99866.72;;;-1.28;70.68
61474;BME280;53694;49.784;30.150;2023-03-13T03:12:28;99869.27;;;-0.97;70.32
61474;BME280;53694;49.784;30.150;2023-03-13T03:13:30;99863.06;;;-0.59;69.58
61474;BME280;53694;49.784;30.150;2023-03-13T03:14:32;99875.14;;;-0.17;68.51
61474;BME280;53694;49.784;30.150;2023-03-13T03:15:33;99878.45;;;0.28;67.45
61474;BME280;53694;49.784;30.150;2023-03-13T03:16:35;99880.76;;;0.64;66.10
61474;BME280;53694;49.784;30.150;2023-03-13T03:17:38;99883.78;;;0.81;65.20
61474;BME280;53694;49.784;30.150;2023-03-13T03:18:40;99879.41;;;0.85;64.62
61474;BME280;53694;49.784;30.150;2023-03-13T03:19:41;99882.22;;;0.75;64.45
61474;BME280;53694;49.784;30.150;2023-03-13T03:20:43;99885.13;;;0.60;64.71
61474;BME280;53694;49.784;30.150;2023-03-13T03:21:45;99881.56;;;0.40;65.12
61474;BME280;53694;49.784;30.150;2023-03-13T03:22:46;99887.18;;;0.20;65.59
61474;BME280;53694;49.784;30.150;2023-03-13T03:23:49;99882.81;;;0.00;66.22
61474;BME280;53694;49.784;30.150;2023-03-13T03:24:50;99880.80;;;-0.18;66.77
61474;BME280;53694;49.784;30.150;2023-03-13T03:25:52;99887.41;;;-0.35;67.31
61474;BME280;53694;49.784;30.150;2023-03-13T03:26:53;99888.91;;;-0.53;67.87
61474;BME280;53694;49.784;30.150;2023-03-13T03:27:55;99880.94;;;-0.68;68.40
61474;BME280;53694;49.784;30.150;2023-03-13T03:28:56;99884.82;;;-0.84;68.92
61474;BME280;53694;49.784;30.150;2023-03-13T03:29:58;99886.51;;;-0.98;69.57
61474;BME280;53694;49.784;30.150;2023-03-13T03:31:05;99884.42;;;-1.12;70.11
61474;BME280;53694;49.784;30.150;2023-03-13T03:32:08;99885.03;;;-1.25;70.64
61474;BME280;53694;49.784;30.150;2023-03-13T03:33:09;99895.87;;;-1.35;71.15
61474;BME280;53694;49.784;30.150;2023-03-13T03:34:11;99901.26;;;-1.35;71.53
61474;BME280;53694;49.784;30.150;2023-03-13T03:35:13;99896.88;;;-1.21;71.62
61474;BME280;53694;49.784;30.150;2023-03-13T03:36:18;99896.70;;;-0.90;71.28
61474;BME280;53694;49.784;30.150;2023-03-13T03:37:19;99895.91;;;-0.52;70.60
61474;BME280;53694;49.784;30.150;2023-03-13T03:38:21;99896.63;;;-0.07;69.60
61474;BME280;53694;49.784;30.150;2023-03-13T03:39:23;99903.23;;;0.35;68.42
61474;BME280;53694;49.784;30.150;2023-03-13T03:40:24;99907.08;;;0.77;67.33
61474;BME280;53694;49.784;30.150;2023-03-13T03:41:26;99909.88;;;1.10;66.03
61474;BME280;53694;49.784;30.150;2023-03-13T03:42:27;99908.58;;;1.26;65.18
61474;BME280;53694;49.784;30.150;2023-03-13T03:43:29;99912.89;;;1.27;64.49
61474;BME280;53694;49.784;30.150;2023-03-13T03:44:30;99904.13;;;1.16;64.26
61474;BME280;53694;49.784;30.150;2023-03-13T03:45:32;99907.03;;;1.01;64.29
61474;BME280;53694;49.784;30.150;2023-03-13T03:46:34;99914.33;;;0.82;64.46
61474;BME280;53694;49.784;30.150;2023-03-13T03:47:35;99902.42;;;0.59;64.83
61474;BME280;53694;49.784;30.150;2023-03-13T03:48:37;99903.23;;;0.35;65.40
61474;BME280;53694;49.784;30.150;2023-03-13T03:49:38;99904.80;;;0.12;65.95
61474;BME280;53694;49.784;30.150;2023-03-13T03:50:40;99900.42;;;-0.08;66.53
61474;BME280;53694;49.784;30.150;2023-03-13T03:51:41;99903.80;;;-0.26;67.16
61474;BME280;53694;49.784;30.150;2023-03-13T03:52:43;99908.00;;;-0.44;67.79
61474;BME280;53694;49.784;30.150;2023-03-13T03:53:45;99906.78;;;-0.62;68.38
61474;BME280;53694;49.784;30.150;2023-03-13T03:54:46;99909.30;;;-0.76;69.00
61474;BME280;53694;49.784;30.150;2023-03-13T03:55:48;99910.73;;;-0.88;69.55
61474;BME280;53694;49.784;30.150;2023-03-13T03:56:50;99921.84;;;-1.00;70.11
61474;BME280;53694;49.784;30.150;2023-03-13T03:57:51;99919.47;;;-1.12;70.61
61474;BME280;53694;49.784;30.150;2023-03-13T03:58:53;99920.04;;;-1.20;71.18
61474;BME280;53694;49.784;30.150;2023-03-13T04:01:15;99926.98;;;-1.04;71.70
61474;BME280;53694;49.784;30.150;2023-03-13T04:02:16;99919.22;;;-0.66;71.35
61474;BME280;53694;49.784;30.150;2023-03-13T04:03:18;99918.09;;;-0.26;70.54
61474;BME280;53694;49.784;30.150;2023-03-13T04:04:19;99927.99;;;0.18;69.66
61474;BME280;53694;49.784;30.150;2023-03-13T04:05:22;99922.44;;;0.58;68.19
61474;BME280;53694;49.784;30.150;2023-03-13T04:06:24;99924.13;;;0.96;67.38
61474;BME280;53694;49.784;30.150;2023-03-13T04:07:26;99932.66;;;1.28;66.51
61474;BME280;53694;49.784;30.150;2023-03-13T04:08:27;99922.48;;;1.38;65.23
61474;BME280;53694;49.784;30.150;2023-03-13T04:09:28;99933.38;;;1.33;65.00
61474;BME280;53694;49.784;30.150;2023-03-13T04:10:30;99934.61;;;1.22;65.12
61474;BME280;53694;49.784;30.150;2023-03-13T04:11:32;99932.40;;;1.05;65.37
61474;BME280;53694;49.784;30.150;2023-03-13T04:12:33;99937.79;;;0.86;65.68
61474;BME280;53694;49.784;30.150;2023-03-13T04:13:35;99931.81;;;0.65;66.13
61474;BME280;53694;49.784;30.150;2023-03-13T04:14:36;99938.23;;;0.45;66.65
61474;BME280;53694;49.784;30.150;2023-03-13T04:15:39;99939.55;;;0.24;67.18
61474;BME280;53694;49.784;30.150;2023-03-13T04:16:41;99938.92;;;0.03;67.84
61474;BME280;53694;49.784;30.150;2023-03-13T04:17:43;99945.32;;;-0.17;68.48
61474;BME280;53694;49.784;30.150;2023-03-13T04:18:44;99946.52;;;-0.33;69.15
61474;BME280;53694;49.784;30.150;2023-03-13T04:19:46;99946.62;;;-0.48;69.72
61474;BME280;53694;49.784;30.150;2023-03-13T04:20:47;99945.64;;;-0.63;70.19
61474;BME280;53694;49.784;30.150;2023-03-13T04:21:49;99948.67;;;-0.74;70.88
61474;BME280;53694;49.784;30.150;2023-03-13T04:22:50;99951.69;;;-0.86;71.36
61474;BME280;53694;49.784;30.150;2023-03-13T04:23:52;99952.23;;;-0.89;71.74
61474;BME280;53694;49.784;30.150;2023-03-13T04:24:54;99950.56;;;-0.75;71.93
61474;BME280;53694;49.784;30.150;2023-03-13T04:25:55;99952.02;;;-0.48;71.63
61474;BME280;53694;49.784;30.150;2023-03-13T04:26:57;99952.28;;;-0.11;71.25
61474;BME280;53694;49.784;30.150;2023-03-13T04:27:58;99946.52;;;0.30;70.40
61474;BME280;53694;49.784;30.150;2023-03-13T04:29:00;99950.91;;;0.74;69.52
61474;BME280;53694;49.784;30.150;2023-03-13T04:30:02;99961.23;;;1.15;68.32
61474;BME280;53694;49.784;30.150;2023-03-13T04:31:04;99959.85;;;1.55;67.23
61474;BME280;53694;49.784;30.150;2023-03-13T04:32:06;99964.00;;;1.85;66.08
61474;BME280;53694;49.784;30.150;2023-03-13T04:33:07;99963.85;;;1.95;64.62
61474;BME280;53694;49.784;30.150;2023-03-13T04:34:09;99957.20;;;1.88;64.32
61474;BME280;53694;49.784;30.150;2023-03-13T04:35:10;99965.33;;;1.69;64.51
61474;BME280;53694;49.784;30.150;2023-03-13T04:36:13;99965.42;;;1.45;64.78
61474;BME280;53694;49.784;30.150;2023-03-13T04:37:14;99972.26;;;1.18;65.43
61474;BME280;53694;49.784;30.150;2023-03-13T04:38:16;99971.84;;;0.87;66.23
61474;BME280;53694;49.784;30.150;2023-03-13T04:39:17;99974.59;;;0.58;67.19
61474;BME280;53694;49.784;30.150;2023-03-13T04:40:19;99967.03;;;0.31;68.12
61474;BME280;53694;49.784;30.150;2023-03-13T04:41:20;99962.37;;;0.08;69.05
61474;BME280;53694;49.784;30.150;2023-03-13T04:42:22;99969.57;;;-0.12;69.86
61474;BME280;53694;49.784;30.150;2023-03-13T04:43:24;99966.73;;;-0.31;70.58
61474;BME280;53694;49.784;30.150;2023-03-13T04:44:25;99962.52;;;-0.47;71.33
61474;BME280;53694;49.784;30.150;2023-03-13T04:45:27;99964.23;;;-0.61;72.06
61474;BME280;53694;49.784;30.150;2023-03-13T04:46:28;99975.57;;;-0.64;72.67
61474;BME280;53694;49.784;30.150;2023-03-13T04:47:30;99970.94;;;-0.54;72.97
61474;BME280;53694;49.784;30.150;2023-03-13T04:48:32;99961.06;;;-0.29;72.69
61474;BME280;53694;49.784;30.150;2023-03-13T04:49:33;99965.66;;;0.05;72.02
61474;BME280;53694;49.784;30.150;2023-03-13T04:50:34;99970.16;;;0.43;71.26
61474;BME280;53694;49.784;30.150;2023-03-13T04:51:36;99982.42;;;0.84;70.04
61474;BME280;53694;49.784;30.150;2023-03-13T04:52:38;99971.98;;;1.20;68.91
61474;BME280;53694;49.784;30.150;2023-03-13T04:53:39;99970.91;;;1.59;67.79
61474;BME280;53694;49.784;30.150;2023-03-13T04:54:41;99974.47;;;1.92;66.34
61474;BME280;53694;49.784;30.150;2023-03-13T04:55:42;99971.92;;;2.14;65.49
61474;BME280;53694;49.784;30.150;2023-03-13T04:56:44;99966.72;;;2.18;64.56
61474;BME280;53694;49.784;30.150;2023-03-13T04:57:46;99967.70;;;2.08;64.61
61474;BME280;53694;49.784;30.150;2023-03-13T04:58:47;99967.42;;;1.91;64.69
61474;BME280;53694;49.784;30.150;2023-03-13T04:59:49;99972.73;;;1.63;65.09
61474;BME280;53694;49.784;30.150;2023-03-13T05:00:52;99972.94;;;1.29;65.91
61474;BME280;53694;49.784;30.150;2023-03-13T05:01:54;99972.73;;;1.02;66.89
61474;BME280;53694;49.784;30.150;2023-03-13T05:02:55;99973.63;;;0.73;67.93
61474;BME280;53694;49.784;30.150;2023-03-13T05:03:56;99971.20;;;0.47;68.82
61474;BME280;53694;49.784;30.150;2023-03-13T05:04:58;99970.86;;;0.25;69.70
61474;BME280;53694;49.784;30.150;2023-03-13T05:06:00;99968.63;;;0.03;70.44
61474;BME280;53694;49.784;30.150;2023-03-13T05:07:01;99972.83;;;-0.15;71.27
61474;BME280;53694;49.784;30.150;2023-03-13T05:08:03;99972.66;;;-0.29;72.03
61474;BME280;53694;49.784;30.150;2023-03-13T05:09:05;99981.60;;;-0.33;72.54
61474;BME280;53694;49.784;30.150;2023-03-13T05:10:08;99985.83;;;-0.22;72.78
61474;BME280;53694;49.784;30.150;2023-03-13T05:11:09;99982.67;;;0.05;72.53
61474;BME280;53694;49.784;30.150;2023-03-13T05:12:11;99974.23;;;0.41;71.85
61474;BME280;53694;49.784;30.150;2023-03-13T05:13:13;99977.38;;;0.77;70.80
61474;BME280;53694;49.784;30.150;2023-03-13T05:14:14;99975.99;;;1.22;69.84
61474;BME280;53694;49.784;30.150;2023-03-13T05:15:15;99979.17;;;1.67;68.00
61474;BME280;53694;49.784;30.150;2023-03-13T05:16:17;99974.42;;;2.11;66.71
61474;BME280;53694;49.784;30.150;2023-03-13T05:17:19;99968.40;;;2.46;65.91
61474;BME280;53694;49.784;30.150;2023-03-13T05:18:20;99982.66;;;2.66;64.58
61474;BME280;53694;49.784;30.150;2023-03-13T05:19:22;99972.41;;;2.63;64.05
61474;BME280;53694;49.784;30.150;2023-03-13T05:20:23;99977.23;;;2.52;64.14
61474;BME280;53694;49.784;30.150;2023-03-13T05:21:25;99969.67;;;2.35;64.43
61474;BME280;53694;49.784;30.150;2023-03-13T05:22:26;99977.84;;;2.16;64.64
61474;BME280;53694;49.784;30.150;2023-03-13T05:23:28;99980.69;;;1.92;64.98
61474;BME280;53694;49.784;30.150;2023-03-13T05:24:29;99970.37;;;1.57;65.47
61474;BME280;53694;49.784;30.150;2023-03-13T05:25:31;99983.05;;;1.42;66.13
61474;BME280;53694;49.784;30.150;2023-03-13T05:26:32;99992.52;;;1.21;67.01
61474;BME280;53694;49.784;30.150;2023-03-13T05:27:34;99994.67;;;1.00;67.70
61474;BME280;53694;49.784;30.150;2023-03-13T05:28:36;99993.53;;;0.82;68.37
61474;BME280;53694;49.784;30.150;2023-03-13T05:29:37;99998.30;;;0.66;69.05
61474;BME280;53694;49.784;30.150;2023-03-13T05:30:39;99997.07;;;0.54;69.64
61474;BME280;53694;49.784;30.150;2023-03-13T05:31:41;99998.25;;;0.42;70.10
61474;BME280;53694;49.784;30.150;2023-03-13T05:32:42;99999.96;;;0.33;70.64
61474;BME280;53694;49.784;30.150;2023-03-13T05:33:43;100003.27;;;0.25;70.98
61474;BME280;53694;49.784;30.150;2023-03-13T05:34:45;99996.27;;;0.24;71.44
61474;BME280;53694;49.784;30.150;2023-03-13T05:35:47;99999.64;;;0.40;71.46